Terminal Aerodrome Forecast
Issued by NWS Jacksonville, FL

Home | Current Version | Previous Version | Text Only | Print | Product List | Glossary On
Versions: 1 2 3 4 5 6 7 8 9 10 11 12 13 14 15 16 17 18 19 20 21 22 23 24 25
000
FTUS42 KJAX 221800 AAB
TAFGNV
TAF AMD
KGNV 221846Z 2219/2318 16009KT P6SM VCSH SCT015 OVC040
      TEMPO 2219/2221 OVC015
     FM222100 16007KT P6SM VCSH SCT007 OVC025
     FM230100 12005KT 4SM BR VCSH OVC010
     FM230500 VRB03KT 2SM BR OVC005
     FM230900 00000KT 1/2SM FG OVC002
     FM231500 19005KT 4SM BR OVC005=

USA.gov is the U.S. government's official web portal to all federal, state and local government web resources and services.